Carlsbad Caverns National Pa, New Mexico
Current Conditions -  °F | °C
As of 12:53 PM on Saturday 25 Oct 2014 (Local Time) from KCNM Reporting Station
Clear Clear  
Wind Chill: 77°   Ceiling: Unl
Heat Index: 78°   Visibility: 10mi
Dew Point: 54°   Wind: 7mph
Humidity: 45%   Direction: 130°SE
Pressure: 30.16"   Gusts: NA
Location:  32.3187°N, 104.429°W
Report Text: KCNM 251853Z AUTO 13006KT 10SM CLR 25/12 A3016 RMK AO2 SLP168 T02500122 $
Loading
Personal Weather Stations






























Interactive Weather Map
Tropical Storm Tracking
New forecast layout! Learn more

10-Day Weather Forecast

Advertisements
Track Severe Weather on mobile